createdAt,value
2022-11-25T05:01:05.203Z,99.99
2022-11-25T05:02:05.034Z,99.99
2022-11-25T05:03:05.027Z,99.99
2022-11-25T05:04:04.966Z,99.99
2022-11-25T05:05:04.897Z,99.99
2022-11-25T05:06:04.907Z,99.99
2022-11-25T05:07:04.994Z,99.99
2022-11-25T05:08:12.925Z,99.99
2022-11-25T05:09:12.771Z,99.99
2022-11-25T05:10:04.923Z,99.99
2022-11-25T05:11:04.823Z,99.99
2022-11-25T05:12:04.840Z,99.99
2022-11-25T05:13:05.002Z,99.99
2022-11-25T05:14:04.863Z,99.99
2022-11-25T05:15:04.841Z,99.99
2022-11-25T05:16:11.858Z,99.99
2022-11-25T05:17:04.807Z,99.99
2022-11-25T05:18:04.755Z,99.99
2022-11-25T05:19:04.938Z,99.99
2022-11-25T05:20:04.725Z,99.99
2022-11-25T05:21:04.693Z,99.99
2022-11-25T05:22:04.704Z,99.99
2022-11-25T05:23:04.669Z,99.99
2022-11-25T05:24:04.674Z,99.99
2022-11-25T05:25:05.114Z,99.99
2022-11-25T05:26:04.704Z,99.99
2022-11-25T05:27:04.624Z,99.99
2022-11-25T05:28:04.638Z,99.99
2022-11-25T05:29:04.602Z,99.99
2022-11-25T05:30:04.619Z,99.99
2022-11-25T05:31:05.218Z,99.99
2022-11-25T05:32:04.600Z,99.99
2022-11-25T05:33:04.550Z,99.99
2022-11-25T05:34:04.563Z,99.99
2022-11-25T05:35:04.519Z,99.99
2022-11-25T05:36:04.537Z,99.99
2022-11-25T05:37:04.541Z,99.99
2022-11-25T05:38:04.518Z,99.99
2022-11-25T05:39:04.469Z,99.99
2022-11-25T05:40:04.573Z,99.99
2022-11-25T05:41:04.467Z,99.99
2022-11-25T05:42:04.451Z,99.99
2022-11-25T05:43:04.886Z,99.99
2022-11-25T05:44:04.420Z,99.99
2022-11-25T05:45:04.425Z,99.99
2022-11-25T05:46:04.843Z,99.99
2022-11-25T05:47:04.415Z,99.99
2022-11-25T05:48:04.363Z,99.99
2022-11-25T05:49:04.376Z,99.99
2022-11-25T05:50:04.366Z,99.99
2022-11-25T05:51:04.361Z,99.99
2022-11-25T05:52:04.500Z,99.99
2022-11-25T05:53:04.314Z,99.99
2022-11-25T05:54:04.283Z,99.99
2022-11-25T05:55:04.335Z,99.99
2022-11-25T05:56:04.428Z,99.99
2022-11-25T05:57:04.280Z,99.99
2022-11-25T05:58:04.421Z,99.99
2022-11-25T05:59:04.321Z,99.99
2022-11-25T06:00:04.222Z,99.99
2022-11-25T06:01:04.222Z,99.99
2022-11-25T06:02:04.315Z,99.99
2022-11-25T06:03:04.291Z,99.99
2022-11-25T06:04:04.208Z,99.99
2022-11-25T06:05:04.175Z,99.99
2022-11-25T06:06:04.146Z,99.99
2022-11-25T06:07:04.160Z,99.99
2022-11-25T06:08:04.168Z,99.99
2022-11-25T06:09:04.158Z,99.99
2022-11-25T06:10:04.096Z,99.99
2022-11-25T06:11:04.087Z,99.99
2022-11-25T06:12:04.070Z,99.99
2022-11-25T06:13:04.065Z,99.99
2022-11-25T06:14:04.105Z,99.99
2022-11-25T06:15:04.054Z,99.99
2022-11-25T06:16:07.719Z,99.99
2022-11-25T06:17:04.045Z,99.99
2022-11-25T06:18:04.012Z,99.99
2022-11-25T06:19:04.005Z,99.99
2022-11-25T06:20:04.181Z,99.99
2022-11-25T06:21:03.983Z,99.99
2022-11-25T06:22:03.950Z,99.99
2022-11-25T06:23:03.952Z,99.99
2022-11-25T06:24:03.911Z,99.99
2022-11-25T06:25:04.268Z,99.99
2022-11-25T06:26:03.953Z,99.99
2022-11-25T06:27:03.919Z,99.99
2022-11-25T06:28:13.731Z,99.99
2022-11-25T06:29:04.872Z,99.99
2022-11-25T06:30:03.839Z,99.99
2022-11-25T06:31:03.887Z,99.99
2022-11-25T06:32:04.017Z,99.99
2022-11-25T06:33:03.821Z,99.99
2022-11-25T06:34:03.789Z,99.99
2022-11-25T06:35:03.798Z,99.99
2022-11-25T06:36:03.796Z,99.99
2022-11-25T06:37:03.775Z,99.99
2022-11-25T06:38:04.157Z,99.99
2022-11-25T06:39:03.758Z,99.99
2022-11-25T06:40:03.776Z,99.99
2022-11-25T06:41:03.731Z,99.99
2022-11-25T06:42:03.695Z,99.99
2022-11-25T06:43:03.705Z,99.99
2022-11-25T06:44:03.975Z,99.99
2022-11-25T06:45:03.695Z,99.99
2022-11-25T06:46:03.728Z,99.99
2022-11-25T06:47:03.665Z,99.99
2022-11-25T06:48:03.623Z,99.99
2022-11-25T06:49:03.635Z,99.99
2022-11-25T06:50:03.630Z,99.99
2022-11-25T06:51:03.615Z,99.99
2022-11-25T06:52:03.673Z,99.99
2022-11-25T06:53:03.572Z,99.99
2022-11-25T06:54:03.554Z,99.99
2022-11-25T06:55:03.553Z,99.99
2022-11-25T06:56:03.513Z,99.99
2022-11-25T06:57:03.530Z,99.99
2022-11-25T06:58:28.418Z,99.99
2022-11-25T06:59:04.504Z,99.99
2022-11-25T07:00:03.481Z,99.99
2022-11-25T07:01:03.479Z,99.99
2022-11-25T07:02:03.520Z,99.99
2022-11-25T07:03:03.493Z,99.99
2022-11-25T07:04:03.541Z,99.99
2022-11-25T07:05:03.417Z,99.99
2022-11-25T07:06:03.397Z,99.99
2022-11-25T07:07:03.396Z,99.99
2022-11-25T07:08:03.390Z,99.99
2022-11-25T07:09:03.384Z,99.99
2022-11-25T07:10:03.494Z,99.99
2022-11-25T07:11:03.355Z,99.99
2022-11-25T07:12:03.340Z,99.99
2022-11-25T07:13:03.325Z,99.99
2022-11-25T07:14:03.294Z,99.99
2022-11-25T07:15:03.300Z,99.99
2022-11-25T07:16:03.380Z,99.99
2022-11-25T07:17:07.392Z,99.99
2022-11-25T07:18:04.242Z,99.99
2022-11-25T07:19:03.264Z,99.99
2022-11-25T07:20:03.258Z,99.99
2022-11-25T07:21:03.231Z,99.99
2022-11-25T07:22:03.381Z,99.99
2022-11-25T07:23:03.210Z,99.99
2022-11-25T07:24:03.173Z,99.99
2022-11-25T07:25:03.251Z,99.99
2022-11-25T07:26:03.148Z,99.99
2022-11-25T07:27:03.160Z,99.99
2022-11-25T07:28:03.752Z,99.99
2022-11-25T07:29:03.129Z,99.99
2022-11-25T07:30:54.463Z,99.99
2022-11-25T07:31:27.256Z,99.99
2022-11-25T07:32:10.081Z,99.99
2022-11-25T07:33:04.182Z,99.99
2022-11-25T07:34:03.048Z,99.99
2022-11-25T07:35:03.047Z,99.99
2022-11-25T07:36:03.023Z,99.99
2022-11-25T07:37:03.036Z,99.99
2022-11-25T07:38:03.045Z,99.99
2022-11-25T07:39:03.036Z,99.99
2022-11-25T07:40:02.979Z,99.99
2022-11-25T07:41:03.165Z,99.99
2022-11-25T07:42:02.945Z,99.99
2022-11-25T07:43:02.953Z,99.99
2022-11-25T07:44:03.003Z,99.99
2022-11-25T07:45:02.938Z,99.99
2022-11-25T07:46:02.930Z,99.99
2022-11-25T07:47:03.333Z,99.99
2022-11-25T07:48:02.867Z,99.99
2022-11-25T07:49:02.875Z,99.99
2022-11-25T07:50:02.841Z,99.99
2022-11-25T07:51:02.861Z,99.99
2022-11-25T07:52:02.819Z,99.99
2022-11-25T07:53:02.903Z,99.99
2022-11-25T07:54:02.791Z,99.99
2022-11-25T07:55:02.811Z,99.99
2022-11-25T07:56:02.770Z,99.99
2022-11-25T07:57:02.770Z,99.99
2022-11-25T07:58:02.760Z,99.99
2022-11-25T07:59:02.812Z,99.99
2022-11-25T08:00:02.718Z,99.99
2022-11-25T08:01:02.720Z,99.99
2022-11-25T08:02:02.795Z,99.99
2022-11-25T08:03:02.762Z,99.99
2022-11-25T08:04:02.665Z,99.99
2022-11-25T08:05:03.478Z,99.99
2022-11-25T08:06:02.648Z,99.99
2022-11-25T08:07:02.657Z,99.99
2022-11-25T08:08:02.713Z,99.99
2022-11-25T08:09:02.659Z,99.99
2022-11-25T08:10:02.657Z,99.99
2022-11-25T08:11:02.648Z,99.99
2022-11-25T08:12:02.566Z,99.99
2022-11-25T08:13:02.569Z,99.99
2022-11-25T08:14:02.544Z,99.99
2022-11-25T08:15:02.545Z,99.99
2022-11-25T08:16:02.641Z,99.99
2022-11-25T08:17:06.012Z,99.99
2022-11-25T08:18:02.501Z,99.99
2022-11-25T08:19:02.493Z,99.99
2022-11-25T08:20:02.462Z,99.99
2022-11-25T08:21:02.474Z,99.99
2022-11-25T08:22:02.446Z,99.99
2022-11-25T08:23:02.501Z,99.99
2022-11-25T08:24:02.492Z,99.99
2022-11-25T08:25:02.452Z,99.99
2022-11-25T08:26:02.389Z,99.99
2022-11-25T08:27:02.422Z,99.99
2022-11-25T08:28:02.390Z,99.99
2022-11-25T08:29:02.460Z,99.99
2022-11-25T08:30:02.339Z,99.99
2022-11-25T08:31:02.423Z,99.99
2022-11-25T08:32:05.141Z,99.99
2022-11-25T08:33:03.318Z,99.99
2022-11-25T08:34:02.279Z,99.99
2022-11-25T08:35:02.393Z,99.99
2022-11-25T08:36:02.259Z,99.99
2022-11-25T08:37:02.277Z,99.99
2022-11-25T08:38:02.238Z,99.99
2022-11-25T08:39:02.301Z,99.99
2022-11-25T08:40:02.400Z,99.99
2022-11-25T08:41:02.241Z,99.99
2022-11-25T08:42:02.892Z,99.99
2022-11-25T08:43:02.215Z,99.99
2022-11-25T08:44:02.156Z,99.99
2022-11-25T08:45:02.358Z,99.99
2022-11-25T08:46:02.146Z,99.99
2022-11-25T08:47:02.200Z,99.99
2022-11-25T08:48:02.116Z,99.99
2022-11-25T08:49:02.122Z,99.99
2022-11-25T08:50:02.079Z,99.99
2022-11-25T08:51:02.144Z,99.99
2022-11-25T08:52:02.069Z,99.99
2022-11-25T08:53:09.065Z,99.99
2022-11-25T08:54:02.028Z,99.99
2022-11-25T08:55:02.046Z,99.99
2022-11-25T08:56:09.119Z,99.99
2022-11-25T08:57:09.034Z,99.99
2022-11-25T08:58:08.996Z,99.99
2022-11-25T08:59:01.981Z,99.99
2022-11-25T09:00:01.940Z,99.99
2022-11-25T09:01:01.960Z,99.99
2022-11-25T09:02:02.578Z,99.99
2022-11-25T09:03:04.351Z,99.99
2022-11-25T09:04:01.898Z,99.99
2022-11-25T09:05:01.913Z,99.99
2022-11-25T09:06:01.894Z,99.99
2022-11-25T09:07:01.934Z,99.99
2022-11-25T09:08:01.980Z,99.99
2022-11-25T09:09:02.016Z,99.99
2022-11-25T09:10:01.847Z,99.99
2022-11-25T09:11:01.913Z,99.99
2022-11-25T09:12:01.806Z,99.99
2022-11-25T09:13:01.808Z,99.99
2022-11-25T09:14:01.895Z,99.99
2022-11-25T09:15:01.786Z,99.99
2022-11-25T09:16:01.789Z,99.99
2022-11-25T09:17:01.755Z,99.99
2022-11-25T09:18:01.726Z,99.99
2022-11-25T09:19:01.740Z,99.99
2022-11-25T09:20:01.764Z,99.99
2022-11-25T09:21:01.716Z,99.99
2022-11-25T09:22:01.685Z,99.99
2022-11-25T09:23:01.694Z,99.99
2022-11-25T09:24:01.659Z,99.99
2022-11-25T09:25:01.666Z,99.99
2022-11-25T09:26:01.854Z,99.99
2022-11-25T09:27:01.642Z,99.99
2022-11-25T09:28:01.602Z,99.64
2022-11-25T09:29:01.611Z,99.39
2022-11-25T09:30:01.584Z,99.70
2022-11-25T09:31:01.634Z,99.55
2022-11-25T09:32:01.667Z,99.55
2022-11-25T09:33:01.572Z,99.34
2022-11-25T09:34:01.521Z,98.41
2022-11-25T09:35:01.530Z,99.04
2022-11-25T09:36:01.507Z,99.44
2022-11-25T09:37:01.519Z,99.51
2022-11-25T09:38:01.527Z,99.25
2022-11-25T09:39:01.483Z,98.84
2022-11-25T09:40:01.447Z,98.58
2022-11-25T09:41:01.464Z,98.07
2022-11-25T09:42:01.438Z,98.02
2022-11-25T09:43:01.420Z,97.30
2022-11-25T09:44:01.488Z,97.56
2022-11-25T09:45:01.397Z,97.77
2022-11-25T09:46:01.407Z,97.01
2022-11-25T09:47:01.386Z,96.91
2022-11-25T09:48:01.366Z,96.39
2022-11-25T09:49:01.327Z,95.77
2022-11-25T09:50:01.401Z,95.87
2022-11-25T09:51:01.314Z,96.34
2022-11-25T09:52:01.306Z,95.83
2022-11-25T09:53:01.275Z,95.52
2022-11-25T09:54:01.295Z,95.62
2022-11-25T09:55:01.256Z,95.52
2022-11-25T09:56:01.756Z,96.03
2022-11-25T09:57:01.226Z,96.66
2022-11-25T09:58:01.263Z,95.99
2022-11-25T09:59:01.206Z,95.68
2022-11-25T10:00:01.215Z,95.68
2022-11-25T10:01:01.225Z,95.58
2022-11-25T10:02:01.303Z,95.78
2022-11-25T10:03:01.321Z,96.36
2022-11-25T10:04:01.183Z,95.74
2022-11-25T10:05:01.125Z,95.64
2022-11-25T10:06:01.177Z,95.74
2022-11-25T10:07:01.255Z,95.08
2022-11-25T10:08:01.123Z,95.28
2022-11-25T10:09:01.085Z,93.84
2022-11-25T10:10:01.101Z,94.26
2022-11-25T10:11:01.072Z,94.36
2022-11-25T10:12:01.080Z,94.98
2022-11-25T10:13:01.211Z,95.08
2022-11-25T10:14:01.035Z,95.49
2022-11-25T10:15:01.013Z,95.08
2022-11-25T10:16:01.063Z,93.95
2022-11-25T10:17:00.981Z,94.46
2022-11-25T10:18:00.981Z,94.77
2022-11-25T10:19:01.178Z,94.87
2022-11-25T10:20:01.017Z,94.73
2022-11-25T10:21:00.931Z,95.24
2022-11-25T10:22:00.938Z,94.46
2022-11-25T10:23:00.897Z,94.62
2022-11-25T10:24:00.917Z,95.03
2022-11-25T10:25:00.963Z,94.73
2022-11-25T10:26:00.887Z,94.42
2022-11-25T10:27:00.861Z,95.34
2022-11-25T10:28:00.857Z,95.24
2022-11-25T10:29:00.828Z,93.49
2022-11-25T10:30:00.827Z,94.17
2022-11-25T10:31:01.380Z,93.35
2022-11-25T10:32:00.820Z,93.55
2022-11-25T10:33:02.574Z,93.24
2022-11-25T10:34:00.783Z,92.83
2022-11-25T10:35:00.747Z,91.97
2022-11-25T10:36:00.775Z,92.48
2022-11-25T10:37:00.784Z,92.27
2022-11-25T10:38:00.734Z,91.72
2022-11-25T10:39:00.705Z,91.00
2022-11-25T10:40:00.717Z,89.87
2022-11-25T10:41:00.677Z,90.48
2022-11-25T10:42:00.704Z,90.18
2022-11-25T10:43:00.810Z,90.08
2022-11-25T10:44:00.823Z,90.42
2022-11-25T10:45:00.621Z,90.22
2022-11-25T10:46:00.654Z,90.22
2022-11-25T10:47:14.606Z,90.12
2022-11-25T10:48:01.652Z,90.63
2022-11-25T10:49:00.582Z,91.14
2022-11-25T10:50:00.580Z,90.22
2022-11-25T10:51:00.771Z,90.32
2022-11-25T10:52:00.563Z,89.09
2022-11-25T10:53:00.522Z,89.91
2022-11-25T10:54:00.531Z,90.48
2022-11-25T10:55:00.504Z,89.97
2022-11-25T10:56:00.540Z,89.97
2022-11-25T10:57:00.687Z,90.48
2022-11-25T10:58:00.492Z,90.08
2022-11-25T10:59:00.474Z,90.80
2022-11-25T11:00:00.462Z,90.38
2022-11-25T11:01:00.430Z,90.18
2022-11-25T11:02:00.517Z,90.48
2022-11-25T11:03:00.747Z,89.76
2022-11-25T11:04:00.424Z,90.22
2022-11-25T11:05:00.482Z,90.73
2022-11-25T11:06:00.393Z,90.83
2022-11-25T11:07:00.349Z,90.63
2022-11-25T11:08:00.436Z,91.25
2022-11-25T11:09:00.397Z,91.45
2022-11-25T11:10:00.347Z,92.07
2022-11-25T11:11:00.356Z,91.55
2022-11-25T11:12:00.339Z,91.14
2022-11-25T11:13:00.295Z,91.93
2022-11-25T11:14:00.296Z,91.31
2022-11-25T11:15:00.314Z,91.51
2022-11-25T11:16:57.109Z,91.41
2022-11-25T11:17:57.069Z,91.10
2022-11-25T11:19:04.576Z,91.10
2022-11-25T11:20:04.834Z,91.00
2022-11-25T11:21:04.580Z,90.59
2022-11-25T11:22:04.531Z,91.31
2022-11-25T11:22:57.020Z,91.61
2022-11-25T11:24:04.517Z,91.51
2022-11-25T11:24:56.994Z,91.72
2022-11-25T11:25:57.014Z,91.51
2022-11-25T11:26:56.987Z,91.51
2022-11-25T11:27:56.963Z,92.07
2022-11-25T11:28:56.963Z,92.17
2022-11-25T11:29:56.912Z,92.58
2022-11-25T11:30:57.017Z,92.69
2022-11-25T11:31:56.891Z,92.69
2022-11-25T11:32:56.909Z,92.58
2022-11-25T11:34:04.404Z,92.69
2022-11-25T11:34:56.883Z,92.54
2022-11-25T11:35:56.871Z,92.33
2022-11-25T11:36:56.899Z,92.23
2022-11-25T11:37:56.827Z,92.44
2022-11-25T11:38:56.851Z,92.23
2022-11-25T11:39:56.873Z,92.23
2022-11-25T11:40:56.821Z,92.13
2022-11-25T11:41:56.790Z,92.33
2022-11-25T11:42:56.867Z,92.23
2022-11-25T11:43:56.747Z,92.44
2022-11-25T11:44:56.757Z,91.99
2022-11-25T11:45:56.732Z,91.99
2022-11-25T11:46:56.801Z,91.99
2022-11-25T11:47:56.724Z,92.50
2022-11-25T11:48:56.893Z,92.19
2022-11-25T11:49:56.693Z,91.78
2022-11-25T11:50:56.704Z,91.88
2022-11-25T11:51:56.667Z,91.88
2022-11-25T11:52:56.655Z,91.99
2022-11-25T11:53:56.639Z,92.08
2022-11-25T11:54:56.681Z,91.78
2022-11-25T11:56:27.020Z,92.19
2022-11-25T11:56:57.623Z,92.08
2022-11-25T11:57:56.718Z,92.19
2022-11-25T11:58:56.575Z,92.40
2022-11-25T11:59:56.564Z,91.57
2022-11-25T12:00:56.578Z,92.08
2022-11-25T12:01:56.592Z,92.60
2022-11-25T12:02:56.698Z,92.29
2022-11-25T12:03:56.776Z,92.70
2022-11-25T12:04:56.522Z,93.12
2022-11-25T12:05:56.475Z,93.32
2022-11-25T12:06:56.495Z,93.36
2022-11-25T12:07:56.485Z,93.16
2022-11-25T12:08:56.475Z,93.36
2022-11-25T12:09:56.470Z,93.67
2022-11-25T12:10:56.458Z,93.46
2022-11-25T12:11:56.424Z,94.29
2022-11-25T12:12:56.508Z,94.95
2022-11-25T12:14:00.680Z,95.40
2022-11-25T12:14:56.380Z,95.92
2022-11-25T12:15:56.444Z,96.27
2022-11-25T12:16:56.372Z,96.68
2022-11-25T12:17:56.341Z,96.93
2022-11-25T12:18:56.781Z,97.03
2022-11-25T12:19:56.354Z,97.34
2022-11-25T12:20:56.320Z,97.55
2022-11-25T12:21:56.287Z,97.96
2022-11-25T12:22:56.301Z,98.16
2022-11-25T12:23:56.269Z,98.21
2022-11-25T12:24:56.399Z,98.32
2022-11-25T12:25:56.232Z,98.42
2022-11-25T12:26:56.229Z,98.21
2022-11-25T12:27:56.201Z,97.69
2022-11-25T12:28:56.206Z,97.39
2022-11-25T12:29:56.178Z,97.39
2022-11-25T12:31:00.487Z,97.28
2022-11-25T12:31:57.200Z,97.28
2022-11-25T12:32:56.159Z,97.14
2022-11-25T12:33:56.139Z,97.14
2022-11-25T12:34:56.136Z,97.14
2022-11-25T12:35:56.104Z,97.14
2022-11-25T12:36:56.168Z,96.93
2022-11-25T12:37:56.280Z,97.03
2022-11-25T12:38:56.084Z,96.99
2022-11-25T12:39:56.053Z,97.19
2022-11-25T12:40:56.080Z,97.40
2022-11-25T12:41:56.085Z,97.36
2022-11-25T12:42:56.104Z,97.45
2022-11-25T12:43:56.201Z,97.25
2022-11-25T12:44:56.008Z,97.56
2022-11-25T12:45:56.029Z,97.77
2022-11-25T12:46:55.995Z,98.03
2022-11-25T12:47:55.954Z,98.03
2022-11-25T12:48:55.954Z,97.52
2022-11-25T12:49:56.007Z,97.52
2022-11-25T12:50:55.934Z,97.62
2022-11-25T12:51:55.913Z,97.82
2022-11-25T12:52:55.929Z,97.92
2022-11-25T12:53:55.879Z,97.72
2022-11-25T12:54:55.879Z,97.41
2022-11-25T12:55:56.041Z,97.31
2022-11-25T12:56:55.865Z,97.41
2022-11-25T12:57:55.829Z,97.41
2022-11-25T12:58:55.892Z,97.41
2022-11-25T13:00:17.575Z,97.37
2022-11-25T13:00:57.539Z,97.57
2022-11-25T13:01:55.954Z,97.47
2022-11-25T13:02:55.858Z,97.37
2022-11-25T13:03:55.755Z,97.27
2022-11-25T13:04:58.069Z,97.12
2022-11-25T13:05:56.717Z,96.91
2022-11-25T13:06:56.200Z,96.91
2022-11-25T13:07:55.809Z,96.81
2022-11-25T13:08:55.728Z,96.40
2022-11-25T13:09:55.671Z,96.30
2022-11-25T13:10:55.992Z,95.94
2022-11-25T13:11:56.124Z,96.04
2022-11-25T13:12:55.965Z,95.84
2022-11-25T13:13:55.971Z,95.98
2022-11-25T13:14:55.915Z,96.40
2022-11-25T13:15:55.938Z,96.70
2022-11-25T13:16:56.255Z,96.40
2022-11-25T13:17:55.697Z,95.89
2022-11-25T13:18:55.673Z,95.89
2022-11-25T13:19:55.578Z,95.57
2022-11-25T13:20:55.578Z,95.37
2022-11-25T13:21:55.524Z,95.47
2022-11-25T13:22:55.552Z,95.47
2022-11-25T13:23:55.495Z,95.62
2022-11-25T13:24:55.531Z,95.72
2022-11-25T13:25:55.478Z,95.93
2022-11-25T13:26:55.513Z,96.23
2022-11-25T13:27:55.444Z,96.44
2022-11-25T13:28:55.750Z,96.44
2022-11-25T13:29:55.412Z,96.55
2022-11-25T13:30:55.436Z,96.55
2022-11-25T13:31:58.944Z,96.23
2022-11-25T13:32:57.582Z,96.23
2022-11-25T13:33:55.393Z,95.83
2022-11-25T13:34:55.488Z,95.93
2022-11-25T13:35:55.343Z,96.23
2022-11-25T13:36:55.382Z,96.23
2022-11-25T13:37:55.325Z,96.28
2022-11-25T13:38:55.335Z,96.48
2022-11-25T13:39:55.292Z,96.69
2022-11-25T13:40:55.363Z,96.90
2022-11-25T13:41:55.344Z,97.00
2022-11-25T13:42:55.305Z,97.00
2022-11-25T13:43:58.565Z,97.10
2022-11-25T13:44:56.291Z,97.31
2022-11-25T13:45:55.264Z,97.41
2022-11-25T13:46:55.434Z,97.66
2022-11-25T13:47:55.208Z,97.97
2022-11-25T13:48:55.300Z,98.18
2022-11-25T13:49:55.167Z,98.49
2022-11-25T13:51:10.708Z,98.69
2022-11-25T13:51:56.150Z,98.69
2022-11-25T13:52:55.150Z,98.79
2022-11-25T13:53:55.151Z,98.90
2022-11-25T13:54:55.487Z,99.00
2022-11-25T13:55:55.090Z,99.21
2022-11-25T13:56:55.118Z,99.31
2022-11-25T13:57:55.067Z,99.51
2022-11-25T13:58:55.088Z,99.62
2022-11-25T13:59:55.028Z,99.62
2022-11-25T14:00:55.539Z,99.72
2022-11-25T14:01:55.084Z,99.82
2022-11-25T14:02:55.176Z,99.88
2022-11-25T14:03:55.033Z,99.98
2022-11-25T14:04:55.074Z,99.98
2022-11-25T14:05:54.970Z,99.88
2022-11-25T14:06:55.167Z,99.88
2022-11-25T14:07:54.988Z,99.88
2022-11-25T14:08:54.977Z,99.88
2022-11-25T14:09:54.916Z,99.77
2022-11-25T14:10:54.935Z,99.63
2022-11-25T14:11:54.893Z,99.63
2022-11-25T14:12:54.985Z,99.63
2022-11-25T14:13:54.863Z,99.63
2022-11-25T14:14:54.865Z,99.52
2022-11-25T14:15:54.912Z,99.52
2022-11-25T14:16:55.025Z,99.42
2022-11-25T14:17:54.832Z,99.42
2022-11-25T14:19:35.122Z,99.42
2022-11-25T14:19:56.123Z,99.42
2022-11-25T14:20:54.812Z,99.42
2022-11-25T14:21:54.774Z,99.57
2022-11-25T14:22:54.768Z,99.57
2022-11-25T14:23:54.733Z,99.57
2022-11-25T14:24:55.415Z,99.77
2022-11-25T14:25:54.771Z,99.82
2022-11-25T14:26:54.749Z,99.82
2022-11-25T14:27:56.364Z,99.93
2022-11-25T14:28:54.757Z,99.99
2022-11-25T14:29:54.668Z,99.99
2022-11-25T14:30:54.849Z,99.99
2022-11-25T14:31:54.745Z,99.99
2022-11-25T14:32:54.638Z,99.99
2022-11-25T14:33:54.633Z,99.99
2022-11-25T14:34:54.635Z,99.99
2022-11-25T14:35:54.639Z,99.99
2022-11-25T14:36:54.653Z,99.99
2022-11-25T14:37:54.569Z,99.99
2022-11-25T14:38:54.612Z,99.99
2022-11-25T14:39:54.540Z,99.99
2022-11-25T14:40:55.043Z,99.99
2022-11-25T14:41:54.516Z,99.99
2022-11-25T14:42:54.558Z,99.99
2022-11-25T14:43:54.479Z,99.99
2022-11-25T14:44:54.699Z,99.99
2022-11-25T14:45:54.548Z,99.99
2022-11-25T14:46:54.496Z,99.99
2022-11-25T14:47:54.456Z,99.99
2022-11-25T14:48:54.443Z,99.99
2022-11-25T14:50:18.848Z,99.99
2022-11-25T14:50:55.495Z,99.99
2022-11-25T14:51:54.445Z,99.99
2022-11-25T14:52:54.444Z,99.99
2022-11-25T14:53:54.357Z,99.99
2022-11-25T14:54:54.373Z,99.99
2022-11-25T14:55:54.342Z,99.99
2022-11-25T14:56:54.581Z,99.99
2022-11-25T14:57:54.383Z,99.99
2022-11-25T14:58:54.319Z,99.99
2022-11-25T14:59:54.283Z,99.99
2022-11-25T15:00:54.286Z,99.99
2022-11-25T15:01:54.326Z,99.99
2022-11-25T15:02:54.560Z,99.99
2022-11-25T15:03:54.286Z,99.99
2022-11-25T15:04:54.301Z,99.99
2022-11-25T15:05:54.201Z,99.99
2022-11-25T15:06:54.225Z,99.99
2022-11-25T15:07:54.301Z,99.99
2022-11-25T15:08:54.341Z,99.99
2022-11-25T15:09:54.185Z,99.99
2022-11-25T15:10:54.184Z,99.99
2022-11-25T15:11:54.123Z,99.99
2022-11-25T15:12:54.193Z,99.99
2022-11-25T15:13:54.095Z,99.99
2022-11-25T15:14:54.173Z,99.99
2022-11-25T15:15:54.208Z,99.99
2022-11-25T15:16:54.127Z,99.99
2022-11-25T15:17:54.077Z,99.99
2022-11-25T15:18:54.035Z,99.99
2022-11-25T15:19:54.045Z,99.99
2022-11-25T15:20:54.018Z,99.99
2022-11-25T15:22:22.096Z,99.99
2022-11-25T15:22:55.008Z,99.99
2022-11-25T15:23:54.066Z,99.99
2022-11-25T15:24:55.872Z,99.99
2022-11-25T15:25:53.981Z,99.99
2022-11-25T15:26:53.929Z,99.99
2022-11-25T15:27:54.010Z,99.99
2022-11-25T15:28:53.908Z,99.99
2022-11-25T15:29:53.915Z,99.99
2022-11-25T15:30:53.888Z,99.99
2022-11-25T15:31:54.024Z,99.99
2022-11-25T15:32:53.875Z,99.99
2022-11-25T15:33:54.606Z,99.99
2022-11-25T15:34:53.875Z,99.99
2022-11-25T15:35:53.849Z,99.99
2022-11-25T15:36:54.636Z,99.99
2022-11-25T15:37:53.805Z,99.99
2022-11-25T15:38:53.817Z,99.99
2022-11-25T15:39:53.852Z,99.99
2022-11-25T15:40:53.816Z,99.99
2022-11-25T15:41:53.770Z,99.99
2022-11-25T15:42:53.723Z,99.99
2022-11-25T15:43:53.764Z,99.99
2022-11-25T15:44:53.715Z,99.99
2022-11-25T15:45:53.748Z,99.99
2022-11-25T15:46:54.213Z,99.99
2022-11-25T15:47:53.866Z,99.99
2022-11-25T15:48:53.655Z,99.99
2022-11-25T15:49:53.673Z,99.99
2022-11-25T15:50:53.650Z,99.99
2022-11-25T15:51:53.674Z,99.99
2022-11-25T15:52:53.679Z,99.90
2022-11-25T15:53:53.623Z,99.80
2022-11-25T15:54:53.580Z,99.70
2022-11-25T15:55:53.585Z,99.39
2022-11-25T15:56:53.549Z,99.14
2022-11-25T15:57:53.616Z,99.04
2022-11-25T15:58:58.634Z,98.62
2022-11-25T15:59:54.531Z,98.62
2022-11-25T16:00:53.510Z,98.42
2022-11-25T16:01:53.592Z,98.32
2022-11-25T16:02:54.289Z,98.21
2022-11-25T16:03:53.479Z,98.32
2022-11-25T16:04:53.463Z,98.42
2022-11-25T16:05:53.459Z,98.32
2022-11-25T16:06:53.419Z,98.32
2022-11-25T16:07:53.584Z,98.42
2022-11-25T16:08:53.403Z,98.32
2022-11-25T16:09:53.406Z,98.52
2022-11-25T16:10:53.365Z,98.72
2022-11-25T16:11:53.380Z,98.93
2022-11-25T16:12:53.366Z,99.04
2022-11-25T16:13:53.614Z,99.14
2022-11-25T16:14:53.319Z,99.14
2022-11-25T16:15:53.446Z,99.39
2022-11-25T16:17:00.934Z,99.70
2022-11-25T16:18:24.542Z,99.80
2022-11-25T16:19:00.799Z,99.99
2022-11-25T16:19:53.289Z,99.99
2022-11-25T16:21:01.353Z,99.99
2022-11-25T16:21:53.243Z,99.99
2022-11-25T16:22:53.255Z,99.99
2022-11-25T16:23:53.222Z,99.99
2022-11-25T16:24:58.724Z,99.99
2022-11-25T16:25:54.200Z,99.99
2022-11-25T16:26:53.234Z,99.99
2022-11-25T16:27:53.188Z,99.99
2022-11-25T16:28:53.138Z,99.99
2022-11-25T16:29:53.151Z,99.99
2022-11-25T16:30:56.143Z,99.99
2022-11-25T16:31:54.184Z,99.99
2022-11-25T16:32:53.103Z,99.99
2022-11-25T16:33:53.101Z,99.99
2022-11-25T16:34:53.078Z,99.99
2022-11-25T16:35:53.076Z,99.99
2022-11-25T16:36:53.099Z,99.99
2022-11-25T16:37:53.053Z,99.99
2022-11-25T16:38:53.014Z,99.99
2022-11-25T16:39:53.026Z,99.99
2022-11-25T16:40:53.037Z,99.99
2022-11-25T16:41:52.990Z,99.99
2022-11-25T16:42:53.024Z,99.99
2022-11-25T16:43:54.318Z,99.99
2022-11-25T16:44:52.942Z,99.99
2022-11-25T16:45:53.008Z,99.99
2022-11-25T16:46:52.941Z,99.99
2022-11-25T16:47:52.994Z,99.99
2022-11-25T16:48:52.969Z,99.99
2022-11-25T16:49:52.878Z,99.99
2022-11-25T16:50:52.862Z,99.99
2022-11-25T16:51:52.858Z,99.99
2022-11-25T16:52:52.843Z,99.99
2022-11-25T16:53:52.825Z,99.99
2022-11-25T16:54:52.962Z,99.99
2022-11-25T16:55:52.846Z,99.99
2022-11-25T16:56:52.828Z,99.99
2022-11-25T16:57:52.839Z,99.99
2022-11-25T16:58:52.763Z,99.99
2022-11-25T16:59:58.327Z,99.99
2022-11-25T17:00:53.897Z,99.99
2022-11-25T17:01:52.990Z,99.99
2022-11-25T17:02:52.820Z,99.99
2022-11-25T17:03:52.723Z,99.99
2022-11-25T17:04:52.725Z,99.99
2022-11-25T17:05:52.678Z,99.99
2022-11-25T17:07:24.242Z,99.99
2022-11-25T17:07:53.727Z,99.99
2022-11-25T17:08:52.704Z,99.99
2022-11-25T17:09:52.641Z,99.99
2022-11-25T17:10:52.588Z,99.99
2022-11-25T17:11:52.613Z,99.99
2022-11-25T17:12:52.644Z,99.99
2022-11-25T17:13:52.588Z,99.99
2022-11-25T17:14:52.733Z,99.99
2022-11-25T17:15:52.696Z,99.99
2022-11-25T17:16:52.597Z,99.99
2022-11-25T17:17:52.581Z,99.99
2022-11-25T17:18:52.541Z,99.99
2022-11-25T17:19:52.499Z,99.99
2022-11-25T17:20:52.466Z,99.99
2022-11-25T17:21:52.475Z,99.99
2022-11-25T17:22:52.428Z,99.99
2022-11-25T17:23:55.174Z,99.99
2022-11-25T17:24:52.403Z,99.99
2022-11-25T17:25:52.426Z,99.99
2022-11-25T17:26:52.537Z,99.99
2022-11-25T17:27:52.417Z,99.99
2022-11-25T17:28:52.357Z,99.99
2022-11-25T17:29:52.888Z,99.99
2022-11-25T17:30:52.325Z,99.99
2022-11-25T17:31:57.990Z,99.99
2022-11-25T17:32:53.329Z,99.99
2022-11-25T17:33:52.316Z,99.99
2022-11-25T17:34:52.278Z,99.99
2022-11-25T17:35:52.703Z,99.99
2022-11-25T17:36:52.263Z,99.99
2022-11-25T17:37:52.263Z,99.99
2022-11-25T17:38:52.226Z,99.99
2022-11-25T17:39:52.258Z,99.99
2022-11-25T17:40:52.195Z,99.99
2022-11-25T17:41:52.407Z,99.99
2022-11-25T17:42:52.172Z,99.99
2022-11-25T17:43:52.237Z,99.99
2022-11-25T17:44:54.214Z,99.99
2022-11-25T17:45:52.184Z,99.99
2022-11-25T17:46:52.123Z,99.99
2022-11-25T17:47:52.342Z,99.99
2022-11-25T17:48:52.091Z,99.99
2022-11-25T17:49:52.157Z,99.99
2022-11-25T17:50:52.081Z,99.99
2022-11-25T17:51:52.080Z,99.99
2022-11-25T17:52:52.050Z,99.90
2022-11-25T17:53:52.140Z,99.90